Time;durP1;ratioP1;P1;durP2;ratioP2;P2;SDS_P1;SDS_P2;PMS_P1;PMS_P2;Temp;Humidity;BMP_temperature;BMP_pressure;BME280_temperature;BME280_humidity;BME280_pressure;Samples;Min_cycle;Max_cycle;Signal;HPM_P1;HPM_P2
2023/01/03 00:01:30;;;;;;;7.40;5.40;;;;;;;;;;107997;1273;46316;-37
2023/01/03 00:04:03;;;;;;;7.70;5.70;;;;;;;;;;108014;1262;44063;-37
2023/01/03 00:06:38;;;;;;;8.30;5.70;;;;;;;;;;108026;1264;42510;-37
2023/01/03 00:09:15;;;;;;;8.50;5.70;;;;;;;;;;108052;1267;39123;-37
2023/01/03 00:14:44;;;;;;;7.80;6.10;;;;;;;;;;108159;1260;44773;-37
2023/01/03 00:17:18;;;;;;;7.30;5.80;;;;;;;;;;108203;1269;42644;-37
2023/01/03 00:19:51;;;;;;;7.10;5.50;;;;;;;;;;108195;1261;39418;-37
2023/01/03 00:22:24;;;;;;;7.60;5.50;;;;;;;;;;108137;1264;40710;-37
2023/01/03 00:24:56;;;;;;;7.80;5.50;;;;;;;;;;108131;1273;43954;-37
2023/01/03 00:27:36;;;;;;;8.50;5.00;;;;;;;;;;108122;1270;42666;-37
2023/01/03 00:30:09;;;;;;;7.70;5.60;;;;;;;;;;108061;1258;39295;-37
2023/01/03 00:32:40;;;;;;;7.30;5.40;;;;;;;;;;108213;1273;40628;-37
2023/01/03 00:35:10;;;;;;;7.40;6.00;;;;;;;;;;108093;1265;177593;-37
2023/01/03 00:37:42;;;;;;;8.40;5.70;;;;;;;;;;108198;1261;42567;-37
2023/01/03 00:40:15;;;;;;;7.70;5.40;;;;;;;;;;107505;1257;909438;-37
2023/01/03 00:45:41;;;;;;;8.00;5.90;;;;;;;;;;108129;1262;44789;-37
2023/01/03 00:48:14;;;;;;;7.60;5.30;;;;;;;;;;108155;1273;44917;-37
2023/01/03 00:50:47;;;;;;;8.30;5.60;;;;;;;;;;108096;1257;39373;-37
2023/01/03 00:53:23;;;;;;;8.20;5.60;;;;;;;;;;108202;1272;41650;-37
2023/01/03 00:56:01;;;;;;;8.00;5.80;;;;;;;;;;108170;1269;45206;-37
2023/01/03 00:58:34;;;;;;;8.00;5.30;;;;;;;;;;108184;1270;42655;-37
2023/01/03 01:01:08;;;;;;;7.30;5.30;;;;;;;;;;108183;1270;39302;-37
2023/01/03 01:03:41;;;;;;;7.10;5.40;;;;;;;;;;108161;1261;40604;-37
2023/01/03 01:06:17;;;;;;;8.30;5.70;;;;;;;;;;108181;1262;43792;-37
2023/01/03 01:08:49;;;;;;;8.30;5.70;;;;;;;;;;108200;1260;42732;-37
2023/01/03 01:11:23;;;;;;;8.00;5.50;;;;;;;;;;108133;1258;39128;-37
2023/01/03 01:13:54;;;;;;;7.70;5.60;;;;;;;;;;108085;1263;40517;-37
2023/01/03 01:16:27;;;;;;;8.30;5.90;;;;;;;;;;108094;1260;43843;-37
2023/01/03 01:18:59;;;;;;;7.40;5.40;;;;;;;;;;108131;1263;43794;-37
2023/01/03 01:21:36;;;;;;;7.10;5.50;;;;;;;;;;108122;1263;39106;-37
2023/01/03 01:24:08;;;;;;;7.10;5.50;;;;;;;;;;108218;1258;41503;-37
2023/01/03 01:26:49;;;;;;;7.70;5.70;;;;;;;;;;108192;1261;43741;-37
2023/01/03 01:29:26;;;;;;;8.30;5.60;;;;;;;;;;108170;1273;42557;-37
2023/01/03 01:31:58;;;;;;;7.60;5.20;;;;;;;;;;108130;1257;39195;-37
2023/01/03 01:34:31;;;;;;;7.40;5.20;;;;;;;;;;108090;1273;40435;-37
2023/01/03 01:37:04;;;;;;;8.00;5.60;;;;;;;;;;108079;1268;44921;-37
2023/01/03 01:39:39;;;;;;;6.70;5.20;;;;;;;;;;108107;1270;42705;-37
2023/01/03 01:45:09;;;;;;;7.00;5.20;;;;;;;;;;108161;1266;40690;-37
2023/01/03 01:47:48;;;;;;;8.10;5.70;;;;;;;;;;108193;1265;43695;-37
2023/01/03 01:50:24;;;;;;;7.00;4.80;;;;;;;;;;108189;1270;42581;-38
2023/01/03 01:52:59;;;;;;;7.30;5.00;;;;;;;;;;108130;1264;39143;-37
2023/01/03 01:55:40;;;;;;;9.00;5.30;;;;;;;;;;108006;1272;175797;-37
2023/01/03 01:58:16;;;;;;;9.50;5.50;;;;;;;;;;108105;1263;43574;-37
2023/01/03 02:00:53;;;;;;;8.20;5.10;;;;;;;;;;108088;1263;42870;-37
2023/01/03 02:03:28;;;;;;;7.70;5.00;;;;;;;;;;108146;1260;39246;-37
2023/01/03 02:06:04;;;;;;;8.00;5.00;;;;;;;;;;108079;1261;175743;-37
2023/01/03 02:08:37;;;;;;;6.90;5.10;;;;;;;;;;108212;1260;43746;-37
2023/01/03 02:11:31;;;;;;;7.50;5.00;;;;;;;;;;108174;1260;43823;-37
2023/01/03 02:14:19;;;;;;;6.90;4.70;;;;;;;;;;108083;1258;39201;-37
2023/01/03 02:17:01;;;;;;;7.90;4.90;;;;;;;;;;108113;1273;40264;-37
2023/01/03 02:20:19;;;;;;;8.00;5.10;;;;;;;;;;108113;1271;43663;-37
2023/01/03 02:23:27;;;;;;;7.60;4.90;;;;;;;;;;108057;1260;42542;-37
2023/01/03 02:26:34;;;;;;;6.70;4.50;;;;;;;;;;108163;1269;39165;-37
2023/01/03 02:30:07;;;;;;;7.20;4.70;;;;;;;;;;108118;1265;40720;-37
2023/01/03 02:32:52;;;;;;;7.70;5.00;;;;;;;;;;108106;1257;43796;-37
2023/01/03 02:35:31;;;;;;;7.50;5.00;;;;;;;;;;108107;1272;43799;-37
2023/01/03 02:38:14;;;;;;;7.50;4.70;;;;;;;;;;108117;1269;39105;-37
2023/01/03 02:40:54;;;;;;;6.60;4.40;;;;;;;;;;108115;1263;40483;-38
2023/01/03 02:43:34;;;;;;;6.80;4.90;;;;;;;;;;108085;1258;43720;-37
2023/01/03 02:46:13;;;;;;;7.20;5.00;;;;;;;;;;108178;1272;43833;-37
2023/01/03 02:48:54;;;;;;;6.70;4.70;;;;;;;;;;108193;1261;39223;-37
2023/01/03 02:51:37;;;;;;;7.70;4.90;;;;;;;;;;108145;1257;40566;-37
2023/01/03 02:54:15;;;;;;;7.20;4.80;;;;;;;;;;108092;1262;44901;-37
2023/01/03 02:56:55;;;;;;;7.30;4.50;;;;;;;;;;108153;1257;42982;-37
2023/01/03 02:59:37;;;;;;;7.10;4.60;;;;;;;;;;108129;1273;38988;-37
2023/01/03 03:02:11;;;;;;;7.20;4.40;;;;;;;;;;108127;1269;41811;-34
2023/01/03 03:04:47;;;;;;;6.50;4.50;;;;;;;;;;108200;1257;43526;-36
2023/01/03 03:07:24;;;;;;;6.70;4.70;;;;;;;;;;108196;1260;42544;-36
2023/01/03 03:13:16;;;;;;;6.80;4.70;;;;;;;;;;107510;1261;912674;-37
2023/01/03 03:15:57;;;;;;;7.40;4.30;;;;;;;;;;108090;1270;49525;-37
2023/01/03 03:18:35;;;;;;;6.10;4.50;;;;;;;;;;108087;1273;43886;-37
2023/01/03 03:28:33;;;;;;;8.20;4.70;;;;;;;;;;108168;1257;43697;-37
2023/01/03 03:30:10;;;;;;;7.50;4.50;;;;;;;;;;108153;1257;42574;-37
2023/01/03 03:32:44;;;;;;;7.40;4.80;;;;;;;;;;108184;1270;39943;-37
2023/01/03 03:35:20;;;;;;;7.40;4.50;;;;;;;;;;108107;1262;40498;-37
2023/01/03 03:37:56;;;;;;;6.40;4.40;;;;;;;;;;108090;1272;43806;-37
2023/01/03 03:46:35;;;;;;;7.30;4.70;;;;;;;;;;108060;1260;176273;-37
2023/01/03 03:52:07;;;;;;;6.80;4.50;;;;;;;;;;108166;1257;42625;-37
2023/01/03 03:54:42;;;;;;;7.20;4.30;;;;;;;;;;108106;1257;39154;-37
2023/01/03 03:57:26;;;;;;;6.70;4.00;;;;;;;;;;107972;1272;175868;-37
2023/01/03 04:00:03;;;;;;;6.70;4.20;;;;;;;;;;108107;1270;43627;-37
2023/01/03 04:02:37;;;;;;;6.10;3.90;;;;;;;;;;108086;1258;42572;-37
2023/01/03 04:05:12;;;;;;;7.50;4.30;;;;;;;;;;108112;1261;40168;-37
2023/01/03 04:07:48;;;;;;;6.40;4.10;;;;;;;;;;108148;1257;40461;-37
2023/01/03 04:10:22;;;;;;;6.80;4.40;;;;;;;;;;108056;1265;175809;-37
2023/01/03 04:12:55;;;;;;;6.10;4.00;;;;;;;;;;108213;1265;42605;-37
2023/01/03 04:15:30;;;;;;;5.90;4.20;;;;;;;;;;108077;1262;39200;-37
2023/01/03 04:18:01;;;;;;;6.30;4.00;;;;;;;;;;107948;1273;40600;-37
2023/01/03 04:20:33;;;;;;;6.40;4.20;;;;;;;;;;108109;1262;43744;-37
2023/01/03 04:23:09;;;;;;;6.30;4.00;;;;;;;;;;108069;1262;42577;-37
2023/01/03 04:25:42;;;;;;;6.10;4.10;;;;;;;;;;108101;1261;39178;-37
2023/01/03 04:28:17;;;;;;;7.20;3.60;;;;;;;;;;108170;1261;40629;-37
2023/01/03 04:30:54;;;;;;;5.80;3.90;;;;;;;;;;108136;1265;43842;-37
2023/01/03 04:33:31;;;;;;;6.10;3.80;;;;;;;;;;108166;1269;42503;-37
2023/01/03 04:36:04;;;;;;;5.60;3.60;;;;;;;;;;108084;1257;39222;-37
2023/01/03 04:38:34;;;;;;;5.90;3.50;;;;;;;;;;108104;1270;40494;-37
2023/01/03 04:41:09;;;;;;;5.70;3.50;;;;;;;;;;108095;1263;43757;-37
2023/01/03 04:44:04;;;;;;;5.00;3.10;;;;;;;;;;108116;1263;42631;-37
2023/01/03 04:46:40;;;;;;;5.30;3.20;;;;;;;;;;108107;1260;39131;-37
2023/01/03 04:49:17;;;;;;;6.10;3.40;;;;;;;;;;108186;1271;40535;-37
2023/01/03 04:51:50;;;;;;;5.30;3.20;;;;;;;;;;108143;1269;43630;-37
2023/01/03 04:54:22;;;;;;;5.90;3.50;;;;;;;;;;108153;1271;43810;-37
2023/01/03 04:56:52;;;;;;;5.40;3.30;;;;;;;;;;108114;1262;39310;-37
2023/01/03 04:59:25;;;;;;;5.20;3.30;;;;;;;;;;108100;1267;40649;-37
2023/01/03 05:02:01;;;;;;;5.70;3.20;;;;;;;;;;108112;1270;44119;-37
2023/01/03 05:04:34;;;;;;;6.90;3.10;;;;;;;;;;108119;1271;42577;-37
2023/01/03 05:07:04;;;;;;;5.80;3.10;;;;;;;;;;108095;1261;39148;-37
2023/01/03 05:09:41;;;;;;;5.90;3.20;;;;;;;;;;108164;1261;42173;-37
2023/01/03 05:12:14;;;;;;;5.60;3.10;;;;;;;;;;108124;1269;45024;-37
2023/01/03 05:14:47;;;;;;;5.00;2.70;;;;;;;;;;108131;1260;43933;-37
2023/01/03 05:17:20;;;;;;;5.10;3.10;;;;;;;;;;108119;1271;39501;-37
2023/01/03 05:25:50;;;;;;;5.30;2.70;;;;;;;;;;107926;1260;42759;-37
2023/01/03 05:28:24;;;;;;;5.20;2.60;;;;;;;;;;108076;1269;40385;-37
2023/01/03 05:30:54;;;;;;;5.30;2.40;;;;;;;;;;108140;1270;40507;-37
2023/01/03 05:33:29;;;;;;;5.50;2.80;;;;;;;;;;108106;1266;44069;-37
2023/01/03 05:36:01;;;;;;;5.60;2.50;;;;;;;;;;108092;1263;43837;-37
2023/01/03 05:38:31;;;;;;;5.10;2.60;;;;;;;;;;108159;1260;39344;-37
2023/01/03 05:41:04;;;;;;;4.90;2.30;;;;;;;;;;108157;1261;40351;-37
2023/01/03 05:43:39;;;;;;;5.60;2.40;;;;;;;;;;108059;1269;175440;-37
2023/01/03 05:46:09;;;;;;;4.60;2.60;;;;;;;;;;108162;1261;42581;-38
2023/01/03 05:48:47;;;;;;;4.80;2.20;;;;;;;;;;108064;1259;39122;-34
2023/01/03 05:51:28;;;;;;;5.50;2.40;;;;;;;;;;107995;1262;175778;-36
2023/01/03 05:54:06;;;;;;;4.70;2.30;;;;;;;;;;108102;1270;44878;-37
2023/01/03 05:56:41;;;;;;;4.70;2.00;;;;;;;;;;108086;1270;43957;-37
2023/01/03 05:59:18;;;;;;;5.70;2.50;;;;;;;;;;108147;1261;39083;-37
2023/01/03 06:01:48;;;;;;;4.80;2.30;;;;;;;;;;108173;1260;40561;-34
2023/01/03 06:04:25;;;;;;;4.60;2.50;;;;;;;;;;108128;1260;44988;-34
2023/01/03 06:06:57;;;;;;;5.40;2.60;;;;;;;;;;108097;1260;42720;-34
2023/01/03 06:09:31;;;;;;;5.30;2.30;;;;;;;;;;108095;1270;46304;-33
2023/01/03 06:12:00;;;;;;;4.20;2.30;;;;;;;;;;108076;1270;40591;-34
2023/01/03 06:14:33;;;;;;;5.60;2.40;;;;;;;;;;108124;1262;43288;-34
2023/01/03 06:19:54;;;;;;;4.40;1.90;;;;;;;;;;108157;1271;47442;-34
2023/01/03 06:22:27;;;;;;;5.20;2.10;;;;;;;;;;108200;1272;40665;-37
2023/01/03 06:24:57;;;;;;;5.10;2.00;;;;;;;;;;108138;1261;43370;-37
2023/01/03 06:27:30;;;;;;;4.70;2.20;;;;;;;;;;108168;1269;42207;-37
2023/01/03 06:30:03;;;;;;;4.40;1.80;;;;;;;;;;108185;1260;39282;-37
2023/01/03 06:32:34;;;;;;;3.70;1.70;;;;;;;;;;108153;1269;40691;-37
2023/01/03 06:35:07;;;;;;;5.20;2.30;;;;;;;;;;108175;1272;45105;-37
2023/01/03 06:37:40;;;;;;;4.30;1.90;;;;;;;;;;108183;1272;42391;-37
2023/01/03 06:40:12;;;;;;;3.90;1.90;;;;;;;;;;108059;1269;45053;-37
2023/01/03 06:42:45;;;;;;;4.00;1.70;;;;;;;;;;108040;1267;41833;-36
2023/01/03 06:53:51;;;;;;;4.10;1.70;;;;;;;;;;108156;1264;40554;-38
2023/01/03 06:56:22;;;;;;;3.70;1.70;;;;;;;;;;108185;1263;43837;-37
2023/01/03 06:58:52;;;;;;;3.80;1.50;;;;;;;;;;108132;1257;42323;-37
2023/01/03 07:01:24;;;;;;;3.90;1.90;;;;;;;;;;108161;1259;39288;-37
2023/01/03 07:03:55;;;;;;;3.80;1.90;;;;;;;;;;108158;1271;40467;-37
2023/01/03 07:06:26;;;;;;;4.20;1.60;;;;;;;;;;108169;1273;43862;-37
2023/01/03 07:09:02;;;;;;;3.90;1.70;;;;;;;;;;108103;1268;42632;-37
2023/01/03 07:11:37;;;;;;;3.20;1.50;;;;;;;;;;108194;1260;45429;-36
2023/01/03 07:14:10;;;;;;;4.60;1.90;;;;;;;;;;108192;1272;40397;-37
2023/01/03 07:16:40;;;;;;;;;;;;;;;;;;108201;1265;43612;-37
2023/01/03 07:19:15;;;;;;;3.70;1.50;;;;;;;;;;108176;1260;42191;-37
2023/01/03 07:21:45;;;;;;;5.60;1.60;;;;;;;;;;108144;1262;40409;-37
2023/01/03 07:24:18;;;;;;;4.00;1.60;;;;;;;;;;108120;1257;40660;-38
2023/01/03 07:26:47;;;;;;;3.80;1.60;;;;;;;;;;108144;1262;43598;-37
2023/01/03 07:29:18;;;;;;;4.10;1.80;;;;;;;;;;108125;1269;42486;-38
2023/01/03 07:31:50;;;;;;;4.30;1.70;;;;;;;;;;108147;1257;44924;-37
2023/01/03 07:34:25;;;;;;;4.70;1.70;;;;;;;;;;108196;1260;40410;-36
2023/01/03 07:37:01;;;;;;;3.50;1.50;;;;;;;;;;108119;1260;175739;-37
2023/01/03 07:39:33;;;;;;;3.80;1.60;;;;;;;;;;108213;1269;42681;-37
2023/01/03 07:44:54;;;;;;;6.80;1.80;;;;;;;;;;108078;1264;40561;-37
2023/01/03 07:47:29;;;;;;;6.10;2.00;;;;;;;;;;107944;1270;44112;-41
2023/01/03 07:50:02;;;;;;;4.60;1.80;;;;;;;;;;108011;1262;43881;-41
2023/01/03 07:52:40;;;;;;;5.80;1.50;;;;;;;;;;108094;1269;46550;-43
2023/01/03 07:55:16;;;;;;;4.20;1.90;;;;;;;;;;108109;1261;40729;-40
2023/01/03 07:57:49;;;;;;;4.80;1.60;;;;;;;;;;108027;1269;175795;-41
2023/01/03 08:00:21;;;;;;;4.40;1.90;;;;;;;;;;108161;1261;42542;-39
2023/01/03 08:02:54;;;;;;;5.10;2.20;;;;;;;;;;108117;1269;45904;-41
2023/01/03 08:05:30;;;;;;;4.00;1.40;;;;;;;;;;108034;1272;40539;-39
2023/01/03 08:08:04;;;;;;;5.60;1.70;;;;;;;;;;108140;1260;44019;-40
2023/01/03 08:13:27;;;;;;;5.10;1.80;;;;;;;;;;108112;1262;44961;-40
2023/01/03 08:15:57;;;;;;;4.20;1.60;;;;;;;;;;108091;1272;40820;-36
2023/01/03 08:18:28;;;;;;;6.90;1.90;;;;;;;;;;108167;1262;43556;-38
2023/01/03 08:21:00;;;;;;;6.60;1.70;;;;;;;;;;108252;1265;42674;-41
2023/01/03 08:23:31;;;;;;;5.90;1.80;;;;;;;;;;107883;1264;44873;-40
2023/01/03 08:26:07;;;;;;;5.40;1.80;;;;;;;;;;107903;1264;41620;-40
2023/01/03 08:28:42;;;;;;;;;;;;;;;;;;108041;1262;43859;-39
2023/01/03 08:31:15;;;;;;;4.10;1.50;;;;;;;;;;108069;1271;43332;-40
2023/01/03 08:33:53;;;;;;;4.00;1.70;;;;;;;;;;108220;1262;44685;-40
2023/01/03 08:36:27;;;;;;;3.90;1.60;;;;;;;;;;108118;1273;40700;-40
2023/01/03 08:39:06;;;;;;;4.70;2.10;;;;;;;;;;108145;1265;43808;-40
2023/01/03 08:41:49;;;;;;;4.10;1.70;;;;;;;;;;108048;1257;42652;-40
2023/01/03 08:44:19;;;;;;;3.40;1.40;;;;;;;;;;108211;1261;46768;-41
2023/01/03 08:46:57;;;;;;;6.10;1.70;;;;;;;;;;108147;1257;40608;-42
2023/01/03 08:49:34;;;;;;;6.60;1.80;;;;;;;;;;108053;1258;43808;-41
2023/01/03 08:52:09;;;;;;;5.00;1.70;;;;;;;;;;108159;1261;42571;-39
2023/01/03 08:54:46;;;;;;;4.70;1.80;;;;;;;;;;108122;1257;46160;-38
2023/01/03 08:57:18;;;;;;;4.50;1.80;;;;;;;;;;108053;1261;175715;-39
2023/01/03 08:59:48;;;;;;;3.60;1.50;;;;;;;;;;108138;1271;43669;-37
2023/01/03 09:02:18;;;;;;;5.20;1.80;;;;;;;;;;108202;1260;43846;-38
2023/01/03 09:04:48;;;;;;;4.90;1.90;;;;;;;;;;107995;1266;39580;-39
2023/01/03 09:07:21;;;;;;;4.40;1.20;;;;;;;;;;108120;1263;39787;-42
2023/01/03 09:09:53;;;;;;;3.60;1.50;;;;;;;;;;108095;1258;43448;-40
2023/01/03 09:12:23;;;;;;;4.30;1.60;;;;;;;;;;108130;1262;42464;-40
2023/01/03 09:14:57;;;;;;;4.60;1.80;;;;;;;;;;108086;1262;45690;-40
2023/01/03 09:17:28;;;;;;;4.20;1.50;;;;;;;;;;108094;1262;41968;-40
2023/01/03 09:20:03;;;;;;;4.30;1.60;;;;;;;;;;108163;1266;43634;-40
2023/01/03 09:22:36;;;;;;;4.00;1.40;;;;;;;;;;108168;1260;42312;-40
2023/01/03 09:25:10;;;;;;;4.00;1.50;;;;;;;;;;108136;1260;46101;-40
2023/01/03 09:27:45;;;;;;;4.00;1.60;;;;;;;;;;108153;1261;40781;-40
2023/01/03 09:30:17;;;;;;;3.70;1.50;;;;;;;;;;108150;1269;43810;-40
2023/01/03 09:32:50;;;;;;;3.90;1.50;;;;;;;;;;108171;1257;42693;-40
2023/01/03 09:35:25;;;;;;;3.80;1.40;;;;;;;;;;108043;1266;38906;-40
2023/01/03 09:38:01;;;;;;;3.50;1.60;;;;;;;;;;108086;1262;40772;-40
2023/01/03 09:40:39;;;;;;;3.20;1.40;;;;;;;;;;108079;1262;43755;-40
2023/01/03 09:43:18;;;;;;;4.90;2.30;;;;;;;;;;108115;1260;42788;-40
2023/01/03 09:45:58;;;;;;;3.50;2.00;;;;;;;;;;108124;1260;45789;-40
2023/01/03 09:48:31;;;;;;;;;;;;;;;;;;108216;1260;40681;-40
2023/01/03 10:06:10;;;;;;;3.70;1.70;;;;;;;;;;108027;1270;42681;-44
2023/01/03 10:08:58;;;;;;;3.80;1.60;;;;;;;;;;108128;1265;40363;-39
2023/01/03 10:11:41;;;;;;;3.20;1.50;;;;;;;;;;108001;1262;40551;-38
2023/01/03 10:14:28;;;;;;;4.10;1.70;;;;;;;;;;108011;1257;43793;-38
2023/01/03 10:17:11;;;;;;;4.10;1.90;;;;;;;;;;108179;1261;42501;-39
2023/01/03 10:20:09;;;;;;;4.30;1.70;;;;;;;;;;107980;1270;175710;-42
2023/01/03 10:22:44;;;;;;;3.90;1.50;;;;;;;;;;108037;1271;175675;-42
2023/01/03 10:25:19;;;;;;;3.60;1.40;;;;;;;;;;108068;1261;43429;-44
2023/01/03 10:27:59;;;;;;;4.00;1.70;;;;;;;;;;108114;1273;42336;-42
2023/01/03 10:30:50;;;;;;;4.20;1.50;;;;;;;;;;107986;1262;177517;-42
2023/01/03 10:33:34;;;;;;;3.50;1.60;;;;;;;;;;107961;1262;40494;-41
2023/01/03 10:36:07;;;;;;;3.00;1.70;;;;;;;;;;107988;1260;175397;-41
2023/01/03 10:38:37;;;;;;;3.00;1.30;;;;;;;;;;108203;1266;42537;-41
2023/01/03 10:41:31;;;;;;;3.10;1.50;;;;;;;;;;108159;1272;39580;-41
2023/01/03 10:44:02;;;;;;;4.10;1.60;;;;;;;;;;108116;1269;40598;-41
2023/01/03 10:46:32;;;;;;;3.60;1.50;;;;;;;;;;107990;1262;43618;-42
2023/01/03 10:49:20;;;;;;;3.10;1.20;;;;;;;;;;108130;1262;43363;-42
2023/01/03 10:52:03;;;;;;;2.40;1.00;;;;;;;;;;108089;1260;39238;-41
2023/01/03 10:54:48;;;;;;;3.00;1.20;;;;;;;;;;107946;1264;41714;-41
2023/01/03 10:57:40;;;;;;;2.50;1.10;;;;;;;;;;108043;1262;49329;-41
2023/01/03 11:00:32;;;;;;;2.80;1.10;;;;;;;;;;108002;1262;175676;-41
2023/01/03 11:03:15;;;;;;;3.30;1.40;;;;;;;;;;108081;1262;41286;-41
2023/01/03 11:05:47;;;;;;;3.60;1.60;;;;;;;;;;108070;1261;40773;-42
2023/01/03 11:08:22;;;;;;;3.00;1.40;;;;;;;;;;108244;1269;43863;-43
2023/01/03 11:10:56;;;;;;;2.90;1.30;;;;;;;;;;108155;1273;43715;-41
2023/01/03 11:13:33;;;;;;;2.80;1.30;;;;;;;;;;108111;1269;39091;-40
2023/01/03 11:16:14;;;;;;;3.90;1.40;;;;;;;;;;107976;1261;175314;-41
2023/01/03 11:19:00;;;;;;;3.40;1.60;;;;;;;;;;108189;1263;43740;-44
2023/01/03 11:21:41;;;;;;;3.00;1.40;;;;;;;;;;108061;1262;43707;-40
2023/01/03 11:24:28;;;;;;;3.30;1.10;;;;;;;;;;108131;1269;39244;-40
2023/01/03 11:27:08;;;;;;;3.70;1.50;;;;;;;;;;108102;1261;40597;-39
2023/01/03 11:29:59;;;;;;;3.40;1.30;;;;;;;;;;107924;1274;44976;-38
2023/01/03 11:32:45;;;;;;;3.40;1.10;;;;;;;;;;108075;1261;42507;-40
2023/01/03 11:35:47;;;;;;;3.30;1.30;;;;;;;;;;108168;1262;39276;-41
2023/01/03 11:38:45;;;;;;;3.20;1.10;;;;;;;;;;108115;1263;46103;-39
2023/01/03 11:41:31;;;;;;;3.00;1.10;;;;;;;;;;108180;1257;43572;-40
2023/01/03 11:44:35;;;;;;;2.80;1.20;;;;;;;;;;108174;1259;42575;-40
2023/01/03 11:47:22;;;;;;;2.90;1.00;;;;;;;;;;108093;1258;39085;-44
2023/01/03 11:50:15;;;;;;;2.60;1.10;;;;;;;;;;108099;1261;40416;-41
2023/01/03 11:52:56;;;;;;;3.20;1.20;;;;;;;;;;108070;1266;43651;-41
2023/01/03 11:55:50;;;;;;;3.60;1.30;;;;;;;;;;108063;1263;42518;-37
2023/01/03 11:58:54;;;;;;;3.10;1.30;;;;;;;;;;108118;1262;39185;-42
2023/01/03 12:01:47;;;;;;;5.40;1.40;;;;;;;;;;108136;1263;40246;-41
2023/01/03 12:04:32;;;;;;;3.60;1.10;;;;;;;;;;108131;1271;43636;-40
2023/01/03 12:07:14;;;;;;;3.30;1.10;;;;;;;;;;108078;1257;42793;-39
2023/01/03 12:10:12;;;;;;;3.00;1.20;;;;;;;;;;108165;1273;39205;-41
2023/01/03 12:13:05;;;;;;;2.00;0.90;;;;;;;;;;108195;1272;41753;-38
2023/01/03 12:15:47;;;;;;;1.90;1.00;;;;;;;;;;108074;1262;43728;-39
2023/01/03 12:18:32;;;;;;;3.30;1.20;;;;;;;;;;108034;1260;42544;-39
2023/01/03 12:21:11;;;;;;;2.70;1.10;;;;;;;;;;108170;1261;40343;-40
2023/01/03 12:23:49;;;;;;;2.90;1.20;;;;;;;;;;108135;1269;41032;-41
2023/01/03 12:26:19;;;;;;;3.80;1.20;;;;;;;;;;108115;1270;43856;-43
2023/01/03 12:28:55;;;;;;;3.10;1.10;;;;;;;;;;108151;1262;42546;-39
2023/01/03 12:31:36;;;;;;;3.10;1.20;;;;;;;;;;107953;1267;39331;-38
2023/01/03 12:34:21;;;;;;;3.20;1.10;;;;;;;;;;108178;1262;40721;-40
2023/01/03 12:37:02;;;;;;;2.70;1.10;;;;;;;;;;108190;1261;45116;-41
2023/01/03 12:39:43;;;;;;;2.20;0.90;;;;;;;;;;107881;1260;49670;-41
2023/01/03 12:42:24;;;;;;;3.10;1.30;;;;;;;;;;107950;1262;39277;-42
2023/01/03 12:45:11;;;;;;;2.70;1.30;;;;;;;;;;107951;1271;41029;-41
2023/01/03 12:47:46;;;;;;;3.20;1.20;;;;;;;;;;107921;1263;43695;-39
2023/01/03 12:50:23;;;;;;;3.10;1.10;;;;;;;;;;108219;1261;42714;-39
2023/01/03 12:53:00;;;;;;;2.70;1.30;;;;;;;;;;108211;1262;39127;-41
2023/01/03 12:55:45;;;;;;;2.80;1.00;;;;;;;;;;108134;1257;40682;-39
2023/01/03 12:58:33;;;;;;;2.50;1.10;;;;;;;;;;108037;1262;43533;-41
2023/01/03 13:01:16;;;;;;;3.40;1.20;;;;;;;;;;108090;1270;42612;-40
2023/01/03 13:03:54;;;;;;;2.50;1.10;;;;;;;;;;108104;1270;39130;-39
2023/01/03 13:06:32;;;;;;;3.20;1.20;;;;;;;;;;108117;1271;40620;-41
2023/01/03 13:09:05;;;;;;;2.80;1.10;;;;;;;;;;108116;1262;43749;-39
2023/01/03 13:11:41;;;;;;;2.40;1.00;;;;;;;;;;108126;1266;42329;-40
2023/01/03 13:14:20;;;;;;;3.40;1.40;;;;;;;;;;108192;1261;40575;-40
2023/01/03 13:16:51;;;;;;;2.80;0.90;;;;;;;;;;108178;1262;40287;-40
2023/01/03 13:19:53;;;;;;;3.00;1.10;;;;;;;;;;108118;1262;43619;-39
2023/01/03 13:22:59;;;;;;;2.90;1.20;;;;;;;;;;108218;1262;43716;-43
2023/01/03 13:25:39;;;;;;;3.60;1.00;;;;;;;;;;107912;1262;323749;-40
2023/01/03 13:28:32;;;;;;;2.70;1.00;;;;;;;;;;108190;1261;40498;-39
2023/01/03 13:31:37;;;;;;;2.90;1.00;;;;;;;;;;108083;1262;50626;-41
2023/01/03 13:34:31;;;;;;;2.90;1.00;;;;;;;;;;108129;1262;43917;-39
2023/01/03 13:37:18;;;;;;;3.40;1.00;;;;;;;;;;108121;1262;39165;-39
2023/01/03 13:40:21;;;;;;;3.20;1.00;;;;;;;;;;108033;1262;40408;-41
2023/01/03 13:43:03;;;;;;;2.90;0.90;;;;;;;;;;108183;1267;43599;-40
2023/01/03 13:46:19;;;;;;;2.00;0.80;;;;;;;;;;108226;1260;42585;-38
2023/01/03 13:49:01;;;;;;;2.70;0.90;;;;;;;;;;108192;1262;39098;-39
2023/01/03 13:51:50;;;;;;;2.50;1.00;;;;;;;;;;107971;1265;46484;-38
2023/01/03 13:54:52;;;;;;;2.80;0.90;;;;;;;;;;108160;1260;43799;-39
2023/01/03 13:57:52;;;;;;;1.90;0.80;;;;;;;;;;108122;1266;42556;-38
2023/01/03 14:00:24;;;;;;;2.00;0.80;;;;;;;;;;107953;1262;175680;-37
2023/01/03 14:03:36;;;;;;;2.80;0.90;;;;;;;;;;108101;1269;41943;-38
2023/01/03 14:06:38;;;;;;;4.20;0.90;;;;;;;;;;107967;1259;43854;-39
2023/01/03 14:09:43;;;;;;;3.60;1.00;;;;;;;;;;108082;1262;42424;-40
2023/01/03 14:12:48;;;;;;;2.80;0.90;;;;;;;;;;108269;1263;45332;-39
2023/01/03 14:15:21;;;;;;;2.90;0.90;;;;;;;;;;108126;1262;40281;-39
2023/01/03 14:18:02;;;;;;;3.60;1.00;;;;;;;;;;108179;1262;43647;-40
2023/01/03 14:20:35;;;;;;;3.00;1.00;;;;;;;;;;108149;1256;44025;-38
2023/01/03 14:23:07;;;;;;;;;;;;;;;;;;108164;1262;39283;-37
2023/01/03 14:26:12;;;;;;;2.30;1.10;;;;;;;;;;108051;1260;40336;-39
2023/01/03 14:28:49;;;;;;;3.50;1.10;;;;;;;;;;108063;1262;43589;-37
2023/01/03 14:31:25;;;;;;;2.50;1.00;;;;;;;;;;107936;1263;42641;-37
2023/01/03 14:33:59;;;;;;;3.20;1.20;;;;;;;;;;107421;1262;891820;-40
2023/01/03 14:36:45;;;;;;;3.30;1.20;;;;;;;;;;108109;1276;41636;-39
2023/01/03 14:39:31;;;;;;;3.90;1.10;;;;;;;;;;108149;1262;43726;-44
2023/01/03 14:42:06;;;;;;;3.80;1.40;;;;;;;;;;108132;1263;43826;-39
2023/01/03 14:44:37;;;;;;;2.80;1.00;;;;;;;;;;108181;1272;40464;-39
2023/01/03 14:47:16;;;;;;;3.40;1.10;;;;;;;;;;108085;1260;40442;-39
2023/01/03 14:49:52;;;;;;;4.40;1.20;;;;;;;;;;108196;1262;43573;-39
2023/01/03 14:52:34;;;;;;;3.90;1.30;;;;;;;;;;108149;1263;42504;-39
2023/01/03 14:55:18;;;;;;;3.10;1.00;;;;;;;;;;108210;1263;39093;-40
2023/01/03 14:57:52;;;;;;;3.70;1.30;;;;;;;;;;108077;1262;40451;-38
2023/01/03 15:00:27;;;;;;;2.90;1.00;;;;;;;;;;108078;1261;43584;-38
2023/01/03 15:03:10;;;;;;;3.00;1.10;;;;;;;;;;108175;1261;42474;-38
2023/01/03 15:05:43;;;;;;;3.80;1.30;;;;;;;;;;108075;1269;39143;-38
2023/01/03 15:08:28;;;;;;;2.90;1.10;;;;;;;;;;108149;1273;40497;-38
2023/01/03 15:11:04;;;;;;;3.80;1.20;;;;;;;;;;108208;1269;43782;-38
2023/01/03 15:13:35;;;;;;;;;;;;;;;;;;108265;1262;42696;-38
2023/01/03 15:16:20;;;;;;;2.60;1.10;;;;;;;;;;108047;1257;175303;-38
2023/01/03 15:18:58;;;;;;;2.80;1.00;;;;;;;;;;108127;1269;175736;-38
2023/01/03 15:21:38;;;;;;;4.60;1.40;;;;;;;;;;108176;1257;43727;-38
2023/01/03 15:24:21;;;;;;;4.90;1.60;;;;;;;;;;108213;1261;42843;-38
2023/01/03 15:26:55;;;;;;;3.30;1.40;;;;;;;;;;108225;1270;39246;-38
2023/01/03 15:29:27;;;;;;;4.20;1.70;;;;;;;;;;108300;1260;40458;-38
2023/01/03 15:32:00;;;;;;;3.80;1.50;;;;;;;;;;108195;1256;43585;-38
2023/01/03 15:34:41;;;;;;;4.00;1.70;;;;;;;;;;108296;1262;42485;-38
2023/01/03 15:37:18;;;;;;;4.40;1.50;;;;;;;;;;108307;1262;38961;-38
2023/01/03 15:39:55;;;;;;;4.30;1.60;;;;;;;;;;108267;1257;40352;-38
2023/01/03 15:45:37;;;;;;;3.40;1.40;;;;;;;;;;108294;1271;42529;-38
2023/01/03 15:48:21;;;;;;;4.00;1.60;;;;;;;;;;108286;1262;39123;-38
2023/01/03 15:50:55;;;;;;;;;;;;;;;;;;108288;1263;40815;-38
2023/01/03 15:53:30;;;;;;;4.60;1.80;;;;;;;;;;108195;1262;44942;-38
2023/01/03 15:56:05;;;;;;;3.70;1.70;;;;;;;;;;108244;1262;42548;-38
2023/01/03 15:58:37;;;;;;;4.30;1.90;;;;;;;;;;108251;1263;39290;-38
2023/01/03 16:01:08;;;;;;;3.70;1.50;;;;;;;;;;108336;1272;41740;-38
2023/01/03 16:03:39;;;;;;;3.90;1.80;;;;;;;;;;108256;1261;43584;-38
2023/01/03 16:06:12;;;;;;;4.50;2.00;;;;;;;;;;108296;1269;44927;-38
2023/01/03 16:08:45;;;;;;;4.00;1.80;;;;;;;;;;108277;1273;39105;-38
2023/01/03 16:11:22;;;;;;;3.80;1.60;;;;;;;;;;108154;1263;175742;-38
2023/01/03 16:14:05;;;;;;;4.70;1.80;;;;;;;;;;108220;1270;43605;-38
2023/01/03 16:16:37;;;;;;;4.00;1.90;;;;;;;;;;108354;1262;42846;-38
2023/01/03 16:19:18;;;;;;;5.20;2.00;;;;;;;;;;108414;1269;39086;-38
2023/01/03 16:21:51;;;;;;;5.40;1.90;;;;;;;;;;108327;1261;40439;-38
2023/01/03 16:24:41;;;;;;;3.80;1.70;;;;;;;;;;108225;1262;175497;-38
2023/01/03 16:27:15;;;;;;;4.60;1.60;;;;;;;;;;108366;1262;43761;-38
2023/01/03 16:29:48;;;;;;;6.30;1.60;;;;;;;;;;108174;1263;39120;-38
2023/01/03 16:32:22;;;;;;;;;;;;;;;;;;108350;1273;40730;-38
2023/01/03 16:35:04;;;;;;;4.60;1.80;;;;;;;;;;108358;1261;45253;-38
2023/01/03 16:37:36;;;;;;;;;;;;;;;;;;108381;1262;42716;-38
2023/01/03 16:40:15;;;;;;;3.70;1.70;;;;;;;;;;108370;1262;38887;-38
2023/01/03 16:42:48;;;;;;;4.50;1.80;;;;;;;;;;108316;1269;40350;-38
2023/01/03 16:45:20;;;;;;;4.00;1.60;;;;;;;;;;108368;1263;49671;-38